createdAt,value
2018-06-16T00:00:23.792Z,23.90
2018-06-16T00:02:51.900Z,23.90
2018-06-16T00:05:20.001Z,23.90
2018-06-16T00:15:11.760Z,23.80
2018-06-16T00:17:39.888Z,23.80
2018-06-16T00:20:11.306Z,23.80
2018-06-16T00:22:40.946Z,23.90
2018-06-16T00:25:10.180Z,23.90
2018-06-16T00:27:38.788Z,23.80
2018-06-16T00:30:08.683Z,23.70
2018-06-16T00:32:36.777Z,23.80
2018-06-16T00:35:04.891Z,23.80
2018-06-16T00:37:33.208Z,23.80
2018-06-16T00:40:02.487Z,23.80
2018-06-16T00:42:31.555Z,23.80
2018-06-16T00:44:59.664Z,23.70
2018-06-16T00:47:27.748Z,23.70
2018-06-16T00:49:55.820Z,23.80
2018-06-16T00:52:24.730Z,23.80
2018-06-16T00:54:52.803Z,23.70
2018-06-16T00:57:32.416Z,23.60
2018-06-16T01:00:00.525Z,23.70
2018-06-16T01:02:28.627Z,23.70
2018-06-16T01:04:56.746Z,23.60
2018-06-16T01:07:24.839Z,23.60
2018-06-16T01:09:53.324Z,23.60
2018-06-16T01:12:21.491Z,23.60
2018-06-16T01:14:49.591Z,23.60
2018-06-16T01:17:22.613Z,23.60
2018-06-16T01:19:50.771Z,23.70
2018-06-16T01:22:19.013Z,23.60
2018-06-16T01:24:47.131Z,23.50
2018-06-16T01:27:15.239Z,23.60
2018-06-16T01:29:43.375Z,23.60
2018-06-16T01:32:11.610Z,23.50
2018-06-16T01:34:39.771Z,23.50
2018-06-16T01:37:07.875Z,23.50
2018-06-16T01:39:36.060Z,23.50
2018-06-16T01:42:04.161Z,23.50
2018-06-16T01:44:32.253Z,23.50
2018-06-16T01:47:00.395Z,23.50
2018-06-16T01:49:28.567Z,23.50
2018-06-16T01:51:56.691Z,23.40
2018-06-16T01:54:24.810Z,23.40
2018-06-16T01:56:52.909Z,23.40
2018-06-16T01:59:20.987Z,23.40
2018-06-16T02:01:49.120Z,23.40
2018-06-16T02:04:17.224Z,23.30
2018-06-16T02:06:45.384Z,23.30
2018-06-16T02:09:13.531Z,23.30
2018-06-16T02:11:41.615Z,23.30
2018-06-16T02:14:10.628Z,23.40
2018-06-16T02:16:38.949Z,23.40
2018-06-16T02:19:07.059Z,23.40
2018-06-16T02:21:35.172Z,23.30
2018-06-16T02:24:03.260Z,23.30
2018-06-16T02:26:31.360Z,23.20
2018-06-16T02:28:59.473Z,23.30
2018-06-16T02:31:27.565Z,23.30
2018-06-16T02:33:55.650Z,23.30
2018-06-16T02:36:24.065Z,23.30
2018-06-16T02:38:52.195Z,23.20
2018-06-16T02:41:20.299Z,23.10
2018-06-16T02:43:48.423Z,23.20
2018-06-16T02:46:16.752Z,23.20
2018-06-16T02:48:44.866Z,23.10
2018-06-16T02:51:13.002Z,23.10
2018-06-16T02:53:41.117Z,23.10
2018-06-16T02:56:09.244Z,23.20
2018-06-16T03:01:05.240Z,23.20
2018-06-16T03:03:33.380Z,23.20
2018-06-16T03:06:01.469Z,23.00
2018-06-16T03:08:29.572Z,23.10
2018-06-16T03:10:57.694Z,23.00
2018-06-16T03:13:25.798Z,23.00
2018-06-16T03:15:53.879Z,23.00
2018-06-16T03:18:21.992Z,23.10
2018-06-16T03:20:50.118Z,23.00
2018-06-16T03:23:18.259Z,23.00
2018-06-16T03:25:46.359Z,23.00
2018-06-16T03:28:14.443Z,23.00
2018-06-16T03:30:42.562Z,23.00
2018-06-16T03:33:10.652Z,23.00
2018-06-16T03:35:38.749Z,23.00
2018-06-16T03:38:06.831Z,22.90
2018-06-16T03:40:34.968Z,23.00
2018-06-16T03:43:03.377Z,22.90
2018-06-16T03:45:31.484Z,23.00
2018-06-16T03:50:27.463Z,23.00
2018-06-16T03:52:55.571Z,23.10
2018-06-16T03:55:23.686Z,22.90
2018-06-16T03:57:51.779Z,23.00
2018-06-16T04:00:19.865Z,23.00
2018-06-16T04:02:47.954Z,23.00
2018-06-16T04:05:16.047Z,23.10
2018-06-16T04:07:44.157Z,23.10
2018-06-16T04:10:12.240Z,23.00
2018-06-16T04:12:40.339Z,23.00
2018-06-16T04:15:08.423Z,23.00
2018-06-16T04:17:36.572Z,23.10
2018-06-16T04:20:04.711Z,23.10
2018-06-16T04:25:00.818Z,23.00
2018-06-16T04:27:28.932Z,23.10
2018-06-16T04:29:57.048Z,23.10
2018-06-16T04:32:25.139Z,23.20
2018-06-16T04:34:54.068Z,23.10
2018-06-16T04:37:22.164Z,23.10
2018-06-16T04:39:50.255Z,23.10
2018-06-16T04:42:18.360Z,23.10
2018-06-16T04:44:46.445Z,23.30
2018-06-16T04:47:14.572Z,23.10
2018-06-16T04:49:42.658Z,23.20
2018-06-16T04:52:10.768Z,23.20
2018-06-16T04:54:38.891Z,23.30
2018-06-16T04:57:06.980Z,23.30
2018-06-16T04:59:35.095Z,23.30
2018-06-16T05:02:03.196Z,23.40
2018-06-16T05:04:31.301Z,23.40
2018-06-16T05:06:59.405Z,23.40
2018-06-16T05:11:55.444Z,23.40
2018-06-16T05:14:23.568Z,23.60
2018-06-16T05:16:51.707Z,23.50
2018-06-16T05:19:19.766Z,23.60
2018-06-16T05:24:15.810Z,23.60
2018-06-16T05:26:43.916Z,23.60
2018-06-16T05:29:12.017Z,23.60
2018-06-16T05:31:40.120Z,23.60
2018-06-16T05:34:08.223Z,23.60
2018-06-16T05:36:36.323Z,23.70
2018-06-16T05:39:07.460Z,23.70
2018-06-16T05:41:35.622Z,23.80
2018-06-16T05:44:03.731Z,23.90
2018-06-16T05:46:31.868Z,23.90
2018-06-16T05:48:59.967Z,24.00
2018-06-16T05:51:28.076Z,24.10
2018-06-16T05:56:24.080Z,24.20
2018-06-16T05:58:52.189Z,24.20
2018-06-16T06:01:20.284Z,24.10
2018-06-16T06:03:48.400Z,24.20
2018-06-16T06:06:16.500Z,24.40
2018-06-16T06:11:12.532Z,24.40
2018-06-16T06:13:40.645Z,24.50
2018-06-16T06:16:08.743Z,24.50
2018-06-16T06:18:36.932Z,24.50
2018-06-16T06:21:05.041Z,24.50
2018-06-16T06:23:33.156Z,24.60
2018-06-16T06:26:01.260Z,24.60
2018-06-16T06:28:29.372Z,24.60
2018-06-16T06:30:57.490Z,24.70
2018-06-16T06:33:25.571Z,24.60
2018-06-16T06:35:53.673Z,24.80
2018-06-16T06:40:49.797Z,24.80
2018-06-16T06:43:17.944Z,24.90
2018-06-16T06:45:46.108Z,24.80
2018-06-16T06:48:14.203Z,24.80
2018-06-16T06:50:42.312Z,25.00
2018-06-16T06:53:10.436Z,25.00
2018-06-16T06:55:38.528Z,25.10
2018-06-16T06:58:06.670Z,25.10
2018-06-16T07:00:35.002Z,25.20
2018-06-16T07:03:03.132Z,25.40
2018-06-16T07:05:31.228Z,25.30
2018-06-16T07:07:59.355Z,25.30
2018-06-16T07:10:27.477Z,25.40
2018-06-16T07:12:55.581Z,25.60
2018-06-16T07:15:23.688Z,25.60
2018-06-16T07:17:51.784Z,25.50
2018-06-16T07:20:20.150Z,25.60
2018-06-16T07:22:48.271Z,25.80
2018-06-16T07:27:44.487Z,25.90
2018-06-16T07:30:12.623Z,25.90
2018-06-16T07:32:40.791Z,26.00
2018-06-16T07:35:09.029Z,26.20
2018-06-16T07:37:37.217Z,26.50
2018-06-16T07:40:05.385Z,26.70
2018-06-16T07:42:33.515Z,26.80
2018-06-16T07:45:01.649Z,26.90
2018-06-16T07:47:29.756Z,27.00
2018-06-16T07:49:58.027Z,27.20
2018-06-16T07:52:26.223Z,27.20
2018-06-16T07:54:54.537Z,27.40
2018-06-16T07:57:22.653Z,27.30
2018-06-16T07:59:50.780Z,27.40
2018-06-16T08:02:18.921Z,27.40
2018-06-16T08:04:47.028Z,27.40
2018-06-16T08:07:15.159Z,27.50
2018-06-16T08:09:43.299Z,27.60
2018-06-16T08:12:11.450Z,27.80
2018-06-16T08:14:39.577Z,28.00
2018-06-16T08:17:07.971Z,28.20
2018-06-16T08:19:36.123Z,28.50
2018-06-16T08:22:04.212Z,28.70
2018-06-16T08:24:32.355Z,28.90
2018-06-16T08:27:00.531Z,29.30
2018-06-16T08:29:28.628Z,29.40
2018-06-16T08:31:56.741Z,29.50
2018-06-16T08:34:24.872Z,29.50
2018-06-16T08:36:53.192Z,29.50
2018-06-16T08:39:21.296Z,29.40
2018-06-16T08:41:49.371Z,29.50
2018-06-16T08:44:17.545Z,29.70
2018-06-16T08:46:45.644Z,29.80
2018-06-16T08:49:13.751Z,29.80
2018-06-16T08:51:41.875Z,29.70
2018-06-16T08:54:09.978Z,29.90
2018-06-16T08:56:38.098Z,29.90
2018-06-16T08:59:06.201Z,29.90
2018-06-16T09:01:34.296Z,29.80
2018-06-16T09:04:02.417Z,29.90
2018-06-16T09:06:30.560Z,30.00
2018-06-16T09:08:58.657Z,30.30
2018-06-16T09:11:26.759Z,30.40
2018-06-16T09:13:54.843Z,30.70
2018-06-16T09:16:22.954Z,30.90
2018-06-16T09:18:51.072Z,31.20
2018-06-16T09:21:19.176Z,31.40
2018-06-16T09:23:47.319Z,31.40
2018-06-16T09:26:15.437Z,31.60
2018-06-16T09:28:43.544Z,31.60
2018-06-16T09:31:11.652Z,31.90
2018-06-16T09:33:39.748Z,32.30
2018-06-16T09:36:07.897Z,32.10
2018-06-16T09:38:35.979Z,32.40
2018-06-16T09:41:04.105Z,32.50
2018-06-16T09:43:32.200Z,32.70
2018-06-16T09:46:00.339Z,32.90
2018-06-16T09:48:28.604Z,33.10
2018-06-16T09:50:56.723Z,33.30
2018-06-16T09:53:24.796Z,33.60
2018-06-16T09:55:52.887Z,34.00
2018-06-16T09:58:21.020Z,33.90
2018-06-16T10:00:49.128Z,33.70
2018-06-16T10:03:17.276Z,33.70
2018-06-16T10:05:45.314Z,33.90
2018-06-16T10:08:13.407Z,33.90
2018-06-16T10:10:41.503Z,33.90
2018-06-16T10:13:09.595Z,34.00
2018-06-16T10:15:37.683Z,33.70
2018-06-16T10:18:05.823Z,33.70
2018-06-16T10:20:33.915Z,33.50
2018-06-16T10:23:02.016Z,33.50
2018-06-16T10:25:30.149Z,33.60
2018-06-16T10:27:58.239Z,33.40
2018-06-16T10:30:26.544Z,32.80
2018-06-16T10:32:54.640Z,32.40
2018-06-16T10:35:22.720Z,32.30
2018-06-16T10:37:50.825Z,32.10
2018-06-16T10:40:18.898Z,32.30
2018-06-16T10:42:46.976Z,32.50
2018-06-16T10:45:15.076Z,32.30
2018-06-16T10:47:43.200Z,32.00
2018-06-16T10:50:11.291Z,32.00
2018-06-16T10:52:39.375Z,32.10
2018-06-16T10:55:07.468Z,32.30
2018-06-16T10:57:35.564Z,32.60
2018-06-16T11:00:03.712Z,32.70
2018-06-16T11:04:59.704Z,33.00
2018-06-16T11:07:27.815Z,33.30
2018-06-16T11:09:55.923Z,33.50
2018-06-16T11:12:24.024Z,33.70
2018-06-16T11:14:52.091Z,33.80
2018-06-16T11:17:20.179Z,33.70
2018-06-16T11:19:48.245Z,33.50
2018-06-16T11:22:16.331Z,33.20
2018-06-16T11:24:44.399Z,33.20
2018-06-16T11:27:12.504Z,33.10
2018-06-16T11:32:08.487Z,33.50
2018-06-16T11:34:36.585Z,33.80
2018-06-16T11:37:04.716Z,33.90
2018-06-16T11:39:32.796Z,34.60
2018-06-16T11:42:00.927Z,34.70
2018-06-16T11:44:29.057Z,35.60
2018-06-16T11:46:57.180Z,36.20
2018-06-16T11:51:53.523Z,38.30
2018-06-16T11:56:49.539Z,39.00
2018-06-16T11:59:17.655Z,38.70
2018-06-16T12:01:45.816Z,38.20
2018-06-16T12:09:11.597Z,40.50
2018-06-16T12:11:39.695Z,42.10
2018-06-16T12:14:08.531Z,43.30
2018-06-16T12:16:36.803Z,43.70
2018-06-16T12:19:05.023Z,44.20
2018-06-16T12:21:33.144Z,43.90
2018-06-16T12:24:01.256Z,43.50
2018-06-16T12:26:29.367Z,43.60
2018-06-16T12:28:57.467Z,43.90
2018-06-16T12:33:53.507Z,43.90
2018-06-16T12:36:21.663Z,43.90
2018-06-16T12:38:49.759Z,44.80
2018-06-16T12:43:45.839Z,46.50
2018-06-16T12:46:13.980Z,47.30
2018-06-16T12:48:42.100Z,47.60
2018-06-16T12:51:10.278Z,46.60
2018-06-16T12:53:38.460Z,47.10
2018-06-16T12:56:06.588Z,47.30
2018-06-16T12:58:34.712Z,46.70
2018-06-16T13:01:02.852Z,45.30
2018-06-16T13:03:30.948Z,43.70
2018-06-16T13:05:59.082Z,42.30
2018-06-16T13:08:27.193Z,40.90
2018-06-16T13:10:55.379Z,39.80
2018-06-16T13:13:23.485Z,39.10
2018-06-16T13:18:19.523Z,37.80
2018-06-16T13:20:47.639Z,37.20
2018-06-16T13:23:15.943Z,36.80
2018-06-16T13:25:44.064Z,36.60
2018-06-16T13:28:12.163Z,36.50
2018-06-16T13:30:40.270Z,36.40
2018-06-16T13:33:08.455Z,36.60
2018-06-16T13:35:36.649Z,37.00
2018-06-16T13:38:05.021Z,39.20
2018-06-16T13:43:01.034Z,42.70
2018-06-16T13:45:30.049Z,44.50
2018-06-16T13:47:58.148Z,44.60
2018-06-16T13:50:26.234Z,42.80
2018-06-16T13:52:54.374Z,41.10
2018-06-16T13:57:50.428Z,39.60
2018-06-16T14:02:46.466Z,39.10
2018-06-16T14:05:14.572Z,38.90
2018-06-16T14:07:42.659Z,38.60
2018-06-16T14:10:10.742Z,38.90
2018-06-16T14:12:38.851Z,39.60
2018-06-16T14:15:06.959Z,40.30
2018-06-16T14:17:35.056Z,40.00
2018-06-16T14:20:03.196Z,39.40
2018-06-16T14:22:31.271Z,38.30
2018-06-16T14:24:59.372Z,37.50
2018-06-16T14:27:27.500Z,36.80
2018-06-16T14:29:55.623Z,36.40
2018-06-16T14:32:23.948Z,35.80
2018-06-16T14:34:52.055Z,35.50
2018-06-16T14:37:20.172Z,35.10
2018-06-16T14:42:16.192Z,34.70
2018-06-16T14:44:44.340Z,34.60
2018-06-16T14:47:12.467Z,34.60
2018-06-16T14:49:40.567Z,34.60
2018-06-16T14:52:08.647Z,34.70
2018-06-16T14:54:36.776Z,34.80
2018-06-16T14:59:32.934Z,35.10
2018-06-16T15:02:01.051Z,35.10
2018-06-16T15:04:29.226Z,35.20
2018-06-16T15:09:25.249Z,35.40
2018-06-16T15:11:53.320Z,35.20
2018-06-16T15:14:21.609Z,35.10
2018-06-16T15:16:49.695Z,35.10
2018-06-16T15:19:17.787Z,35.10
2018-06-16T15:21:45.876Z,35.20
2018-06-16T15:26:41.867Z,35.40
2018-06-16T15:29:10.027Z,35.40
2018-06-16T15:31:38.088Z,35.30
2018-06-16T15:34:06.196Z,35.40
2018-06-16T15:36:34.304Z,35.30
2018-06-16T15:39:02.430Z,35.30
2018-06-16T15:41:30.532Z,35.00
2018-06-16T15:43:58.617Z,34.90
2018-06-16T15:46:26.760Z,34.70
2018-06-16T15:48:55.727Z,34.50
2018-06-16T15:51:23.871Z,34.30
2018-06-16T15:53:51.964Z,34.30
2018-06-16T15:56:20.224Z,34.40
2018-06-16T15:58:48.337Z,34.30
2018-06-16T16:01:16.416Z,34.20
2018-06-16T16:03:44.534Z,34.10
2018-06-16T16:06:12.685Z,34.00
2018-06-16T16:08:40.796Z,34.00
2018-06-16T16:11:08.963Z,33.90
2018-06-16T16:13:37.082Z,34.00
2018-06-16T16:16:05.364Z,34.00
2018-06-16T16:18:33.470Z,34.00
2018-06-16T16:21:01.576Z,33.90
2018-06-16T16:23:29.719Z,33.90
2018-06-16T16:25:57.943Z,33.70
2018-06-16T16:28:26.068Z,33.50
2018-06-16T16:30:54.163Z,33.50
2018-06-16T16:33:22.262Z,33.30
2018-06-16T16:35:50.344Z,33.30
2018-06-16T16:38:18.659Z,33.10
2018-06-16T16:40:46.772Z,33.00
2018-06-16T16:43:14.907Z,32.90
2018-06-16T16:45:43.036Z,32.80
2018-06-16T16:48:11.155Z,32.60
2018-06-16T16:50:39.433Z,32.60
2018-06-16T16:53:07.564Z,32.50
2018-06-16T16:55:35.833Z,32.50
2018-06-16T16:58:03.930Z,32.40
2018-06-16T17:00:32.064Z,32.40
2018-06-16T17:03:00.149Z,32.20
2018-06-16T17:05:28.280Z,32.20
2018-06-16T17:07:56.383Z,32.10
2018-06-16T17:10:24.527Z,32.20
2018-06-16T17:15:20.535Z,32.00
2018-06-16T17:17:48.953Z,32.00
2018-06-16T17:22:45.065Z,32.00
2018-06-16T17:25:13.204Z,32.00
2018-06-16T17:27:41.351Z,31.90
2018-06-16T17:30:09.494Z,31.80
2018-06-16T17:32:37.598Z,31.70
2018-06-16T17:37:34.494Z,31.70
2018-06-16T17:40:02.601Z,31.70
2018-06-16T17:42:30.766Z,31.70
2018-06-16T17:44:58.956Z,31.70
2018-06-16T17:47:27.096Z,31.60
2018-06-16T17:49:55.405Z,31.40
2018-06-16T17:52:23.500Z,31.30
2018-06-16T17:54:51.620Z,31.20
2018-06-16T17:57:19.751Z,31.10
2018-06-16T17:59:47.869Z,31.00
2018-06-16T18:02:16.013Z,30.90
2018-06-16T18:04:44.150Z,30.80
2018-06-16T18:07:12.428Z,30.70
2018-06-16T18:09:40.544Z,30.70
2018-06-16T18:12:08.680Z,30.60
2018-06-16T18:17:04.732Z,30.50
2018-06-16T18:19:32.882Z,30.40
2018-06-16T18:22:01.020Z,30.40
2018-06-16T18:24:29.175Z,30.30
2018-06-16T18:26:57.324Z,30.20
2018-06-16T18:29:25.910Z,30.10
2018-06-16T18:31:54.014Z,30.10
2018-06-16T18:36:50.025Z,29.90
2018-06-16T18:41:46.047Z,29.80
2018-06-16T18:44:14.155Z,29.70
2018-06-16T18:46:42.315Z,29.70
2018-06-16T18:49:10.429Z,29.60
2018-06-16T18:51:38.536Z,29.60
2018-06-16T18:54:06.860Z,29.50
2018-06-16T18:56:35.499Z,29.50
2018-06-16T18:59:03.697Z,29.50
2018-06-16T19:01:31.829Z,29.40
2018-06-16T19:03:59.967Z,29.30
2018-06-16T19:06:28.139Z,29.30
2018-06-16T19:08:56.292Z,29.20
2018-06-16T19:11:24.412Z,29.10
2018-06-16T19:13:52.559Z,29.10
2018-06-16T19:18:48.570Z,29.00
2018-06-16T19:21:23.031Z,28.90
2018-06-16T19:23:51.196Z,28.90
2018-06-16T19:26:19.331Z,28.80
2018-06-16T19:28:47.445Z,28.70
2018-06-16T19:31:15.561Z,28.70
2018-06-16T19:33:43.696Z,28.70
2018-06-16T19:36:11.828Z,28.60
2018-06-16T19:41:07.869Z,28.50
2018-06-16T19:46:04.025Z,28.40
2018-06-16T19:48:32.128Z,28.40
2018-06-16T19:51:00.301Z,28.30
2018-06-16T19:53:28.389Z,28.30
2018-06-16T19:55:56.498Z,28.20
2018-06-16T20:00:52.647Z,28.10
2018-06-16T20:03:20.801Z,28.10
2018-06-16T20:05:48.923Z,28.10
2018-06-16T20:08:17.080Z,28.00
2018-06-16T20:10:45.234Z,28.00
2018-06-16T20:13:13.386Z,28.00
2018-06-16T20:15:41.570Z,27.90
2018-06-16T20:18:09.700Z,27.90
2018-06-16T20:20:37.784Z,27.90
2018-06-16T20:23:05.924Z,27.90
2018-06-16T20:25:34.036Z,27.80
2018-06-16T20:28:02.125Z,27.80
2018-06-16T20:30:30.444Z,27.70
2018-06-16T20:32:58.787Z,27.70
2018-06-16T20:35:27.003Z,27.70
2018-06-16T20:40:23.155Z,27.60
2018-06-16T20:42:51.415Z,27.60
2018-06-16T20:45:19.544Z,27.50
2018-06-16T20:47:47.902Z,27.50
2018-06-16T20:50:15.971Z,27.50
2018-06-16T20:52:44.633Z,27.40
2018-06-16T20:55:12.707Z,27.40
2018-06-16T20:57:40.800Z,27.40
2018-06-16T21:00:09.252Z,27.30
2018-06-16T21:02:37.512Z,27.30
2018-06-16T21:07:33.611Z,27.20
2018-06-16T21:10:01.742Z,27.20
2018-06-16T21:14:57.708Z,27.10
2018-06-16T21:17:25.833Z,27.10
2018-06-16T21:19:53.928Z,27.10
2018-06-16T21:24:49.959Z,27.00
2018-06-16T21:27:18.088Z,27.00
2018-06-16T21:29:46.192Z,27.00
2018-06-16T21:32:14.285Z,26.90
2018-06-16T21:34:42.396Z,26.90
2018-06-16T21:37:10.532Z,26.90
2018-06-16T21:39:38.654Z,26.80
2018-06-16T21:42:07.060Z,26.80
2018-06-16T21:44:35.167Z,26.80
2018-06-16T21:47:03.255Z,26.70
2018-06-16T21:49:31.375Z,26.70
2018-06-16T21:51:59.491Z,26.70
2018-06-16T21:54:27.623Z,26.70
2018-06-16T21:56:55.722Z,26.70
2018-06-16T21:59:23.815Z,26.60
2018-06-16T22:01:51.920Z,26.60
2018-06-16T22:04:20.036Z,26.60
2018-06-16T22:09:16.009Z,26.50
2018-06-16T22:14:11.987Z,26.50
2018-06-16T22:16:40.098Z,26.50
2018-06-16T22:19:08.187Z,26.40
2018-06-16T22:21:36.288Z,26.40
2018-06-16T22:24:04.545Z,26.30
2018-06-16T22:26:32.643Z,26.30
2018-06-16T22:29:00.756Z,26.30
2018-06-16T22:33:56.783Z,26.30
2018-06-16T22:36:24.886Z,26.20
2018-06-16T22:38:53.036Z,26.30
2018-06-16T22:41:21.111Z,26.30
2018-06-16T22:43:49.212Z,26.30
2018-06-16T22:46:17.357Z,26.20
2018-06-16T22:48:45.468Z,26.20
2018-06-16T22:51:13.585Z,26.20
2018-06-16T22:53:41.679Z,26.10
2018-06-16T22:56:09.800Z,26.10
2018-06-16T22:58:37.877Z,26.10
2018-06-16T23:01:05.980Z,26.10
2018-06-16T23:03:34.076Z,26.10
2018-06-16T23:06:02.180Z,26.10
2018-06-16T23:08:30.292Z,26.00
2018-06-16T23:10:58.632Z,26.10
2018-06-16T23:13:26.711Z,26.00
2018-06-16T23:15:54.825Z,26.10
2018-06-16T23:20:50.801Z,26.00
2018-06-16T23:23:18.895Z,26.00
2018-06-16T23:25:47.004Z,25.90
2018-06-16T23:28:15.115Z,26.00
2018-06-16T23:30:43.255Z,26.00
2018-06-16T23:33:11.352Z,26.00
2018-06-16T23:35:39.488Z,26.00
2018-06-16T23:38:07.616Z,25.90
2018-06-16T23:40:35.752Z,25.90
2018-06-16T23:43:03.864Z,25.80
2018-06-16T23:45:31.985Z,25.80
2018-06-16T23:48:00.095Z,25.90
2018-06-16T23:50:28.206Z,25.90
2018-06-16T23:52:56.360Z,25.80
2018-06-16T23:55:24.495Z,25.80
2018-06-16T23:57:52.599Z,25.70
